sensor_id;sensor_type;location;lat;lon;timestamp;P1;durP1;ratioP1;P2;durP2;ratioP2
27402;SDS011;14862;49.494;8.530;2023-01-08T00:00:21;9.07;;;6.18;;
27402;SDS011;14862;49.494;8.530;2023-01-08T00:02:47;11.15;;;6.70;;
27402;SDS011;14862;49.494;8.530;2023-01-08T00:05:13;10.18;;;6.90;;
27402;SDS011;14862;49.494;8.530;2023-01-08T00:07:39;7.85;;;6.13;;
27402;SDS011;14862;49.494;8.530;2023-01-08T00:10:04;9.75;;;6.53;;
27402;SDS011;14862;49.494;8.530;2023-01-08T00:12:29;9.30;;;6.32;;
27402;SDS011;14862;49.494;8.530;2023-01-08T00:14:55;8.50;;;6.20;;
27402;SDS011;14862;49.494;8.530;2023-01-08T00:17:20;10.13;;;5.88;;
27402;SDS011;14862;49.494;8.530;2023-01-08T00:19:45;9.38;;;6.05;;
27402;SDS011;14862;49.494;8.530;2023-01-08T00:22:10;7.72;;;5.65;;
27402;SDS011;14862;49.494;8.530;2023-01-08T00:24:35;8.23;;;6.33;;
27402;SDS011;14862;49.494;8.530;2023-01-08T00:27:01;8.05;;;6.18;;
27402;SDS011;14862;49.494;8.530;2023-01-08T00:29:26;9.52;;;6.53;;
27402;SDS011;14862;49.494;8.530;2023-01-08T00:31:51;8.85;;;6.75;;
27402;SDS011;14862;49.494;8.530;2023-01-08T00:34:16;9.85;;;6.22;;
27402;SDS011;14862;49.494;8.530;2023-01-08T00:36:42;9.05;;;6.70;;
27402;SDS011;14862;49.494;8.530;2023-01-08T00:39:07;7.78;;;5.63;;
27402;SDS011;14862;49.494;8.530;2023-01-08T00:41:32;8.80;;;6.20;;
27402;SDS011;14862;49.494;8.530;2023-01-08T00:43:57;12.73;;;6.55;;
27402;SDS011;14862;49.494;8.530;2023-01-08T00:46:22;8.95;;;6.07;;
27402;SDS011;14862;49.494;8.530;2023-01-08T00:48:48;9.13;;;6.15;;
27402;SDS011;14862;49.494;8.530;2023-01-08T00:51:13;7.53;;;5.50;;
27402;SDS011;14862;49.494;8.530;2023-01-08T00:53:38;9.90;;;5.80;;
27402;SDS011;14862;49.494;8.530;2023-01-08T00:56:04;8.32;;;6.32;;
27402;SDS011;14862;49.494;8.530;2023-01-08T00:58:30;11.43;;;6.38;;
27402;SDS011;14862;49.494;8.530;2023-01-08T01:00:56;7.78;;;5.97;;
27402;SDS011;14862;49.494;8.530;2023-01-08T01:03:21;9.80;;;5.97;;
27402;SDS011;14862;49.494;8.530;2023-01-08T01:05:46;10.00;;;5.63;;
27402;SDS011;14862;49.494;8.530;2023-01-08T01:08:12;9.45;;;5.88;;
27402;SDS011;14862;49.494;8.530;2023-01-08T01:10:37;9.10;;;5.40;;
27402;SDS011;14862;49.494;8.530;2023-01-08T01:13:03;8.48;;;5.82;;
27402;SDS011;14862;49.494;8.530;2023-01-08T01:15:28;5.97;;;5.28;;
27402;SDS011;14862;49.494;8.530;2023-01-08T01:17:53;8.02;;;5.15;;
27402;SDS011;14862;49.494;8.530;2023-01-08T01:20:18;7.97;;;5.47;;
27402;SDS011;14862;49.494;8.530;2023-01-08T01:22:43;6.50;;;4.72;;
27402;SDS011;14862;49.494;8.530;2023-01-08T01:25:09;7.93;;;5.32;;
27402;SDS011;14862;49.494;8.530;2023-01-08T01:27:34;6.20;;;4.95;;
27402;SDS011;14862;49.494;8.530;2023-01-08T01:29:59;7.00;;;5.32;;
27402;SDS011;14862;49.494;8.530;2023-01-08T01:32:24;7.10;;;5.45;;
27402;SDS011;14862;49.494;8.530;2023-01-08T01:34:50;8.13;;;5.55;;
27402;SDS011;14862;49.494;8.530;2023-01-08T01:37:15;7.63;;;5.82;;
27402;SDS011;14862;49.494;8.530;2023-01-08T01:39:40;8.82;;;5.93;;
27402;SDS011;14862;49.494;8.530;2023-01-08T01:42:10;6.25;;;5.13;;
27402;SDS011;14862;49.494;8.530;2023-01-08T01:44:56;6.65;;;4.93;;
27402;SDS011;14862;49.494;8.530;2023-01-08T01:47:29;9.82;;;5.63;;
27402;SDS011;14862;49.494;8.530;2023-01-08T01:49:57;7.47;;;4.72;;
27402;SDS011;14862;49.494;8.530;2023-01-08T01:52:24;9.10;;;5.03;;
27402;SDS011;14862;49.494;8.530;2023-01-08T01:54:51;7.95;;;5.05;;
27402;SDS011;14862;49.494;8.530;2023-01-08T01:57:17;8.52;;;6.15;;
27402;SDS011;14862;49.494;8.530;2023-01-08T01:59:42;7.80;;;5.47;;
27402;SDS011;14862;49.494;8.530;2023-01-08T02:02:08;8.88;;;5.45;;
27402;SDS011;14862;49.494;8.530;2023-01-08T02:04:34;6.50;;;5.10;;
27402;SDS011;14862;49.494;8.530;2023-01-08T02:07:05;7.93;;;5.32;;
27402;SDS011;14862;49.494;8.530;2023-01-08T02:12:16;7.43;;;5.22;;
27402;SDS011;14862;49.494;8.530;2023-01-08T02:25:04;6.73;;;4.77;;
27402;SDS011;14862;49.494;8.530;2023-01-08T02:27:31;7.18;;;4.97;;
27402;SDS011;14862;49.494;8.530;2023-01-08T02:29:57;6.03;;;4.47;;
27402;SDS011;14862;49.494;8.530;2023-01-08T02:32:26;6.97;;;4.45;;
27402;SDS011;14862;49.494;8.530;2023-01-08T02:34:53;7.65;;;5.15;;
27402;SDS011;14862;49.494;8.530;2023-01-08T02:37:18;7.90;;;4.65;;
27402;SDS011;14862;49.494;8.530;2023-01-08T02:40:02;10.02;;;5.70;;
27402;SDS011;14862;49.494;8.530;2023-01-08T02:47:46;7.40;;;5.28;;
27402;SDS011;14862;49.494;8.530;2023-01-08T02:52:59;5.15;;;4.43;;
27402;SDS011;14862;49.494;8.530;2023-01-08T02:55:27;5.85;;;4.55;;
27402;SDS011;14862;49.494;8.530;2023-01-08T02:57:54;8.38;;;5.43;;
27402;SDS011;14862;49.494;8.530;2023-01-08T03:00:19;6.93;;;4.95;;
27402;SDS011;14862;49.494;8.530;2023-01-08T03:02:45;6.00;;;5.07;;
27402;SDS011;14862;49.494;8.530;2023-01-08T03:05:17;8.07;;;5.07;;
27402;SDS011;14862;49.494;8.530;2023-01-08T03:07:44;6.17;;;4.60;;
27402;SDS011;14862;49.494;8.530;2023-01-08T03:10:10;5.95;;;4.70;;
27402;SDS011;14862;49.494;8.530;2023-01-08T03:15:05;6.40;;;5.07;;
27402;SDS011;14862;49.494;8.530;2023-01-08T03:17:32;7.80;;;5.15;;
27402;SDS011;14862;49.494;8.530;2023-01-08T03:20:01;7.97;;;5.20;;
27402;SDS011;14862;49.494;8.530;2023-01-08T03:22:27;8.73;;;5.53;;
27402;SDS011;14862;49.494;8.530;2023-01-08T03:24:52;7.10;;;5.40;;
27402;SDS011;14862;49.494;8.530;2023-01-08T03:27:20;9.07;;;5.22;;
27402;SDS011;14862;49.494;8.530;2023-01-08T03:29:48;7.75;;;5.20;;
27402;SDS011;14862;49.494;8.530;2023-01-08T03:32:14;9.52;;;6.03;;
27402;SDS011;14862;49.494;8.530;2023-01-08T03:34:40;11.48;;;6.13;;
27402;SDS011;14862;49.494;8.530;2023-01-08T03:37:06;7.72;;;5.88;;
27402;SDS011;14862;49.494;8.530;2023-01-08T03:39:36;6.53;;;4.75;;
27402;SDS011;14862;49.494;8.530;2023-01-08T03:42:05;7.35;;;5.20;;
27402;SDS011;14862;49.494;8.530;2023-01-08T03:44:31;9.75;;;5.30;;
27402;SDS011;14862;49.494;8.530;2023-01-08T03:46:56;6.70;;;5.30;;
27402;SDS011;14862;49.494;8.530;2023-01-08T03:49:23;6.43;;;5.07;;
27402;SDS011;14862;49.494;8.530;2023-01-08T03:51:49;6.65;;;4.63;;
27402;SDS011;14862;49.494;8.530;2023-01-08T03:54:19;8.68;;;5.13;;
27402;SDS011;14862;49.494;8.530;2023-01-08T03:56:45;8.07;;;4.60;;
27402;SDS011;14862;49.494;8.530;2023-01-08T03:59:11;6.60;;;4.75;;
27402;SDS011;14862;49.494;8.530;2023-01-08T04:01:36;6.57;;;4.72;;
27402;SDS011;14862;49.494;8.530;2023-01-08T04:04:01;7.45;;;4.57;;
27402;SDS011;14862;49.494;8.530;2023-01-08T04:06:27;6.53;;;4.60;;
27402;SDS011;14862;49.494;8.530;2023-01-08T04:08:52;5.50;;;4.22;;
27402;SDS011;14862;49.494;8.530;2023-01-08T04:11:17;7.13;;;4.35;;
27402;SDS011;14862;49.494;8.530;2023-01-08T04:13:42;9.88;;;5.30;;
27402;SDS011;14862;49.494;8.530;2023-01-08T04:16:08;9.80;;;5.13;;
27402;SDS011;14862;49.494;8.530;2023-01-08T04:18:33;7.30;;;4.33;;
27402;SDS011;14862;49.494;8.530;2023-01-08T04:20:58;6.80;;;5.28;;
27402;SDS011;14862;49.494;8.530;2023-01-08T04:23:23;7.15;;;4.82;;
27402;SDS011;14862;49.494;8.530;2023-01-08T04:25:50;6.63;;;4.72;;
27402;SDS011;14862;49.494;8.530;2023-01-08T04:28:15;7.70;;;5.03;;
27402;SDS011;14862;49.494;8.530;2023-01-08T04:30:40;6.03;;;4.53;;
27402;SDS011;14862;49.494;8.530;2023-01-08T04:33:05;5.70;;;4.27;;
27402;SDS011;14862;49.494;8.530;2023-01-08T04:35:31;7.45;;;4.53;;
27402;SDS011;14862;49.494;8.530;2023-01-08T04:37:56;5.57;;;4.65;;
27402;SDS011;14862;49.494;8.530;2023-01-08T04:40:21;7.60;;;4.35;;
27402;SDS011;14862;49.494;8.530;2023-01-08T04:42:46;5.53;;;4.40;;
27402;SDS011;14862;49.494;8.530;2023-01-08T04:45:11;8.65;;;4.68;;
27402;SDS011;14862;49.494;8.530;2023-01-08T04:47:37;6.55;;;4.70;;
27402;SDS011;14862;49.494;8.530;2023-01-08T04:50:02;5.00;;;4.35;;
27402;SDS011;14862;49.494;8.530;2023-01-08T04:52:27;7.32;;;4.63;;
27402;SDS011;14862;49.494;8.530;2023-01-08T04:54:53;8.75;;;4.38;;
27402;SDS011;14862;49.494;8.530;2023-01-08T04:57:18;9.80;;;5.17;;
27402;SDS011;14862;49.494;8.530;2023-01-08T04:59:43;7.50;;;4.68;;
27402;SDS011;14862;49.494;8.530;2023-01-08T05:02:08;9.43;;;5.32;;
27402;SDS011;14862;49.494;8.530;2023-01-08T05:04:34;6.47;;;4.43;;
27402;SDS011;14862;49.494;8.530;2023-01-08T05:06:59;8.55;;;4.78;;
27402;SDS011;14862;49.494;8.530;2023-01-08T05:09:24;8.15;;;5.50;;
27402;SDS011;14862;49.494;8.530;2023-01-08T05:11:49;7.95;;;5.40;;
27402;SDS011;14862;49.494;8.530;2023-01-08T05:14:14;6.80;;;5.28;;
27402;SDS011;14862;49.494;8.530;2023-01-08T05:16:40;7.15;;;5.25;;
27402;SDS011;14862;49.494;8.530;2023-01-08T05:19:05;10.80;;;5.55;;
27402;SDS011;14862;49.494;8.530;2023-01-08T05:21:30;8.20;;;5.30;;
27402;SDS011;14862;49.494;8.530;2023-01-08T05:23:56;7.55;;;5.07;;
27402;SDS011;14862;49.494;8.530;2023-01-08T05:26:21;6.13;;;5.35;;
27402;SDS011;14862;49.494;8.530;2023-01-08T05:28:46;5.53;;;4.70;;
27402;SDS011;14862;49.494;8.530;2023-01-08T05:31:11;10.95;;;4.80;;
27402;SDS011;14862;49.494;8.530;2023-01-08T05:33:37;7.55;;;4.90;;
27402;SDS011;14862;49.494;8.530;2023-01-08T05:36:03;5.88;;;4.90;;
27402;SDS011;14862;49.494;8.530;2023-01-08T05:38:29;6.20;;;4.75;;
27402;SDS011;14862;49.494;8.530;2023-01-08T05:40:54;8.00;;;5.03;;
27402;SDS011;14862;49.494;8.530;2023-01-08T05:43:19;10.60;;;4.97;;
27402;SDS011;14862;49.494;8.530;2023-01-08T05:45:44;6.60;;;5.45;;
27402;SDS011;14862;49.494;8.530;2023-01-08T05:48:09;6.35;;;5.10;;
27402;SDS011;14862;49.494;8.530;2023-01-08T05:50:35;8.55;;;5.32;;
27402;SDS011;14862;49.494;8.530;2023-01-08T05:53:00;9.43;;;5.80;;
27402;SDS011;14862;49.494;8.530;2023-01-08T05:55:25;6.68;;;5.20;;
27402;SDS011;14862;49.494;8.530;2023-01-08T05:57:51;8.57;;;5.75;;
27402;SDS011;14862;49.494;8.530;2023-01-08T06:00:16;8.20;;;5.70;;
27402;SDS011;14862;49.494;8.530;2023-01-08T06:02:47;7.38;;;5.93;;
27402;SDS011;14862;49.494;8.530;2023-01-08T06:05:13;7.47;;;5.32;;
27402;SDS011;14862;49.494;8.530;2023-01-08T06:07:38;7.70;;;5.68;;
27402;SDS011;14862;49.494;8.530;2023-01-08T06:10:03;8.48;;;5.55;;
27402;SDS011;14862;49.494;8.530;2023-01-08T06:12:29;9.82;;;5.88;;
27402;SDS011;14862;49.494;8.530;2023-01-08T06:14:54;6.80;;;5.45;;
27402;SDS011;14862;49.494;8.530;2023-01-08T06:17:19;8.40;;;5.90;;
27402;SDS011;14862;49.494;8.530;2023-01-08T06:19:44;7.97;;;5.50;;
27402;SDS011;14862;49.494;8.530;2023-01-08T06:22:11;10.60;;;6.25;;
27402;SDS011;14862;49.494;8.530;2023-01-08T06:24:36;7.70;;;6.15;;
27402;SDS011;14862;49.494;8.530;2023-01-08T06:27:01;6.90;;;5.30;;
27402;SDS011;14862;49.494;8.530;2023-01-08T06:29:27;9.75;;;6.32;;
27402;SDS011;14862;49.494;8.530;2023-01-08T06:31:52;7.82;;;5.55;;
27402;SDS011;14862;49.494;8.530;2023-01-08T06:34:17;7.20;;;5.63;;
27402;SDS011;14862;49.494;8.530;2023-01-08T06:36:42;8.13;;;5.93;;
27402;SDS011;14862;49.494;8.530;2023-01-08T06:39:07;9.07;;;5.87;;
27402;SDS011;14862;49.494;8.530;2023-01-08T06:41:33;7.07;;;5.25;;
27402;SDS011;14862;49.494;8.530;2023-01-08T06:43:58;9.07;;;6.55;;
27402;SDS011;14862;49.494;8.530;2023-01-08T06:46:23;8.48;;;5.90;;
27402;SDS011;14862;49.494;8.530;2023-01-08T06:48:49;8.77;;;5.90;;
27402;SDS011;14862;49.494;8.530;2023-01-08T06:51:14;7.85;;;5.93;;
27402;SDS011;14862;49.494;8.530;2023-01-08T06:53:39;7.65;;;5.70;;
27402;SDS011;14862;49.494;8.530;2023-01-08T06:56:04;10.05;;;6.25;;
27402;SDS011;14862;49.494;8.530;2023-01-08T06:58:33;12.30;;;6.30;;
27402;SDS011;14862;49.494;8.530;2023-01-08T07:00:58;9.73;;;6.47;;
27402;SDS011;14862;49.494;8.530;2023-01-08T07:03:23;8.65;;;5.88;;
27402;SDS011;14862;49.494;8.530;2023-01-08T07:05:48;8.50;;;5.55;;
27402;SDS011;14862;49.494;8.530;2023-01-08T07:08:14;9.23;;;6.25;;
27402;SDS011;14862;49.494;8.530;2023-01-08T07:10:40;7.65;;;5.53;;
27402;SDS011;14862;49.494;8.530;2023-01-08T07:13:05;7.88;;;5.97;;
27402;SDS011;14862;49.494;8.530;2023-01-08T07:15:37;8.10;;;6.30;;
27402;SDS011;14862;49.494;8.530;2023-01-08T07:18:09;8.77;;;6.13;;
27402;SDS011;14862;49.494;8.530;2023-01-08T07:20:35;9.40;;;6.97;;
27402;SDS011;14862;49.494;8.530;2023-01-08T07:23:01;9.40;;;6.60;;
27402;SDS011;14862;49.494;8.530;2023-01-08T07:25:27;9.55;;;6.75;;
27402;SDS011;14862;49.494;8.530;2023-01-08T07:27:52;9.63;;;7.25;;
27402;SDS011;14862;49.494;8.530;2023-01-08T07:30:17;9.15;;;7.10;;
27402;SDS011;14862;49.494;8.530;2023-01-08T07:32:42;11.27;;;6.78;;
27402;SDS011;14862;49.494;8.530;2023-01-08T07:35:08;11.18;;;7.07;;
27402;SDS011;14862;49.494;8.530;2023-01-08T07:37:33;10.60;;;6.68;;
27402;SDS011;14862;49.494;8.530;2023-01-08T07:39:58;8.40;;;6.75;;
27402;SDS011;14862;49.494;8.530;2023-01-08T07:42:23;10.98;;;7.22;;
27402;SDS011;14862;49.494;8.530;2023-01-08T07:44:49;10.32;;;7.00;;
27402;SDS011;14862;49.494;8.530;2023-01-08T07:47:15;12.15;;;7.20;;
27402;SDS011;14862;49.494;8.530;2023-01-08T07:49:40;12.18;;;8.10;;
27402;SDS011;14862;49.494;8.530;2023-01-08T07:52:05;12.30;;;7.45;;
27402;SDS011;14862;49.494;8.530;2023-01-08T07:54:30;10.10;;;6.87;;
27402;SDS011;14862;49.494;8.530;2023-01-08T07:56:55;10.50;;;7.73;;
27402;SDS011;14862;49.494;8.530;2023-01-08T07:59:21;10.07;;;6.55;;
27402;SDS011;14862;49.494;8.530;2023-01-08T08:01:46;9.68;;;6.78;;
27402;SDS011;14862;49.494;8.530;2023-01-08T08:04:13;11.23;;;7.60;;
27402;SDS011;14862;49.494;8.530;2023-01-08T08:06:39;11.63;;;7.05;;
27402;SDS011;14862;49.494;8.530;2023-01-08T08:09:04;9.48;;;7.10;;
27402;SDS011;14862;49.494;8.530;2023-01-08T08:11:30;11.35;;;7.07;;
27402;SDS011;14862;49.494;8.530;2023-01-08T08:13:55;9.80;;;7.70;;
27402;SDS011;14862;49.494;8.530;2023-01-08T08:16:20;9.50;;;7.43;;
27402;SDS011;14862;49.494;8.530;2023-01-08T08:18:45;9.15;;;6.53;;
27402;SDS011;14862;49.494;8.530;2023-01-08T08:21:11;11.95;;;7.18;;
27402;SDS011;14862;49.494;8.530;2023-01-08T08:23:36;9.63;;;6.80;;
27402;SDS011;14862;49.494;8.530;2023-01-08T08:26:02;12.63;;;7.07;;
27402;SDS011;14862;49.494;8.530;2023-01-08T08:28:28;10.90;;;7.32;;
27402;SDS011;14862;49.494;8.530;2023-01-08T08:30:53;10.68;;;7.90;;
27402;SDS011;14862;49.494;8.530;2023-01-08T08:33:18;10.25;;;7.53;;
27402;SDS011;14862;49.494;8.530;2023-01-08T08:35:47;10.98;;;7.38;;
27402;SDS011;14862;49.494;8.530;2023-01-08T08:38:14;10.60;;;6.93;;
27402;SDS011;14862;49.494;8.530;2023-01-08T08:40:40;10.93;;;7.90;;
27402;SDS011;14862;49.494;8.530;2023-01-08T08:43:05;10.25;;;7.57;;
27402;SDS011;14862;49.494;8.530;2023-01-08T08:45:30;12.68;;;8.48;;
27402;SDS011;14862;49.494;8.530;2023-01-08T08:47:56;10.75;;;7.65;;
27402;SDS011;14862;49.494;8.530;2023-01-08T08:50:21;11.98;;;8.10;;
27402;SDS011;14862;49.494;8.530;2023-01-08T08:52:46;10.68;;;6.75;;
27402;SDS011;14862;49.494;8.530;2023-01-08T08:55:13;12.20;;;7.45;;
27402;SDS011;14862;49.494;8.530;2023-01-08T08:57:40;8.75;;;6.95;;
27402;SDS011;14862;49.494;8.530;2023-01-08T09:00:05;11.30;;;7.65;;
27402;SDS011;14862;49.494;8.530;2023-01-08T09:02:31;10.55;;;7.25;;
27402;SDS011;14862;49.494;8.530;2023-01-08T09:04:56;9.52;;;6.93;;
27402;SDS011;14862;49.494;8.530;2023-01-08T09:07:21;7.77;;;6.13;;
27402;SDS011;14862;49.494;8.530;2023-01-08T09:09:46;12.07;;;6.90;;
27402;SDS011;14862;49.494;8.530;2023-01-08T09:12:11;10.20;;;7.07;;
27402;SDS011;14862;49.494;8.530;2023-01-08T09:14:37;15.82;;;7.70;;
27402;SDS011;14862;49.494;8.530;2023-01-08T09:17:02;11.10;;;6.82;;
27402;SDS011;14862;49.494;8.530;2023-01-08T09:19:27;11.65;;;7.22;;
27402;SDS011;14862;49.494;8.530;2023-01-08T09:21:52;10.35;;;6.45;;
27402;SDS011;14862;49.494;8.530;2023-01-08T09:24:18;10.32;;;6.70;;
27402;SDS011;14862;49.494;8.530;2023-01-08T09:26:43;10.32;;;6.93;;
27402;SDS011;14862;49.494;8.530;2023-01-08T09:29:08;8.40;;;6.25;;
27402;SDS011;14862;49.494;8.530;2023-01-08T09:31:33;9.10;;;6.47;;
27402;SDS011;14862;49.494;8.530;2023-01-08T09:33:59;7.47;;;5.72;;
27402;SDS011;14862;49.494;8.530;2023-01-08T09:36:24;8.27;;;6.05;;
27402;SDS011;14862;49.494;8.530;2023-01-08T09:38:49;10.23;;;6.25;;
27402;SDS011;14862;49.494;8.530;2023-01-08T09:43:41;7.37;;;6.37;;
27402;SDS011;14862;49.494;8.530;2023-01-08T09:46:07;7.95;;;6.63;;
27402;SDS011;14862;49.494;8.530;2023-01-08T09:48:35;9.07;;;5.88;;
27402;SDS011;14862;49.494;8.530;2023-01-08T09:51:00;7.90;;;5.38;;
27402;SDS011;14862;49.494;8.530;2023-01-08T09:53:26;7.30;;;5.70;;
27402;SDS011;14862;49.494;8.530;2023-01-08T09:55:55;8.75;;;5.50;;
27402;SDS011;14862;49.494;8.530;2023-01-08T09:58:32;9.30;;;5.63;;
27402;SDS011;14862;49.494;8.530;2023-01-08T10:01:00;9.27;;;5.78;;
27402;SDS011;14862;49.494;8.530;2023-01-08T10:03:27;7.00;;;5.18;;
27402;SDS011;14862;49.494;8.530;2023-01-08T10:05:54;7.00;;;5.05;;
27402;SDS011;14862;49.494;8.530;2023-01-08T10:08:19;6.78;;;4.90;;
27402;SDS011;14862;49.494;8.530;2023-01-08T10:10:44;6.75;;;4.70;;
27402;SDS011;14862;49.494;8.530;2023-01-08T10:13:10;6.50;;;4.38;;
27402;SDS011;14862;49.494;8.530;2023-01-08T10:15:36;7.57;;;4.60;;
27402;SDS011;14862;49.494;8.530;2023-01-08T10:18:04;6.82;;;4.38;;
27402;SDS011;14862;49.494;8.530;2023-01-08T10:20:31;8.40;;;3.60;;
27402;SDS011;14862;49.494;8.530;2023-01-08T10:22:56;5.05;;;3.35;;
27402;SDS011;14862;49.494;8.530;2023-01-08T10:25:32;5.50;;;3.95;;
27402;SDS011;14862;49.494;8.530;2023-01-08T10:27:58;4.30;;;3.10;;
27402;SDS011;14862;49.494;8.530;2023-01-08T10:32:55;6.25;;;3.67;;
27402;SDS011;14862;49.494;8.530;2023-01-08T10:35:23;7.00;;;2.92;;
27402;SDS011;14862;49.494;8.530;2023-01-08T10:37:53;3.88;;;3.08;;
27402;SDS011;14862;49.494;8.530;2023-01-08T10:42:47;3.92;;;2.67;;
27402;SDS011;14862;49.494;8.530;2023-01-08T10:45:21;3.65;;;2.80;;
27402;SDS011;14862;49.494;8.530;2023-01-08T10:47:48;4.03;;;2.47;;
27402;SDS011;14862;49.494;8.530;2023-01-08T10:50:18;3.33;;;2.53;;
27402;SDS011;14862;49.494;8.530;2023-01-08T10:52:50;3.22;;;2.38;;
27402;SDS011;14862;49.494;8.530;2023-01-08T10:55:24;4.45;;;2.58;;
27402;SDS011;14862;49.494;8.530;2023-01-08T10:57:57;5.50;;;3.20;;
27402;SDS011;14862;49.494;8.530;2023-01-08T11:02:51;3.58;;;2.13;;
27402;SDS011;14862;49.494;8.530;2023-01-08T11:05:16;3.63;;;2.65;;
27402;SDS011;14862;49.494;8.530;2023-01-08T11:07:42;2.80;;;2.50;;
27402;SDS011;14862;49.494;8.530;2023-01-08T11:10:19;2.72;;;2.00;;
27402;SDS011;14862;49.494;8.530;2023-01-08T11:12:45;2.17;;;1.70;;
27402;SDS011;14862;49.494;8.530;2023-01-08T11:17:39;2.47;;;1.90;;
27402;SDS011;14862;49.494;8.530;2023-01-08T11:20:23;4.47;;;2.50;;
27402;SDS011;14862;49.494;8.530;2023-01-08T11:23:02;4.03;;;2.03;;
27402;SDS011;14862;49.494;8.530;2023-01-08T11:25:28;3.67;;;2.47;;
27402;SDS011;14862;49.494;8.530;2023-01-08T11:27:54;2.53;;;1.98;;
27402;SDS011;14862;49.494;8.530;2023-01-08T11:30:22;3.83;;;2.72;;
27402;SDS011;14862;49.494;8.530;2023-01-08T11:32:48;3.72;;;2.45;;
27402;SDS011;14862;49.494;8.530;2023-01-08T11:35:26;3.30;;;2.42;;
27402;SDS011;14862;49.494;8.530;2023-01-08T11:37:59;4.13;;;2.33;;
27402;SDS011;14862;49.494;8.530;2023-01-08T11:55:48;4.82;;;2.83;;
27402;SDS011;14862;49.494;8.530;2023-01-08T12:03:32;3.58;;;2.17;;
27402;SDS011;14862;49.494;8.530;2023-01-08T12:06:01;3.28;;;2.17;;
27402;SDS011;14862;49.494;8.530;2023-01-08T12:10:59;3.95;;;1.70;;
27402;SDS011;14862;49.494;8.530;2023-01-08T12:21:31;4.07;;;1.95;;
27402;SDS011;14862;49.494;8.530;2023-01-08T12:24:19;2.95;;;1.83;;
27402;SDS011;14862;49.494;8.530;2023-01-08T12:31:58;3.13;;;1.90;;
27402;SDS011;14862;49.494;8.530;2023-01-08T12:36:55;2.72;;;1.92;;
27402;SDS011;14862;49.494;8.530;2023-01-08T12:39:28;3.63;;;2.13;;
27402;SDS011;14862;49.494;8.530;2023-01-08T12:42:00;2.47;;;1.90;;
27402;SDS011;14862;49.494;8.530;2023-01-08T12:44:29;2.80;;;2.22;;
27402;SDS011;14862;49.494;8.530;2023-01-08T12:46:56;3.35;;;2.40;;
27402;SDS011;14862;49.494;8.530;2023-01-08T12:49:26;5.43;;;2.22;;
27402;SDS011;14862;49.494;8.530;2023-01-08T12:52:01;2.53;;;1.83;;
27402;SDS011;14862;49.494;8.530;2023-01-08T12:54:36;2.58;;;2.03;;
27402;SDS011;14862;49.494;8.530;2023-01-08T13:05:09;2.88;;;1.92;;
27402;SDS011;14862;49.494;8.530;2023-01-08T13:10:20;2.88;;;2.08;;
27402;SDS011;14862;49.494;8.530;2023-01-08T13:12:49;4.65;;;1.98;;
27402;SDS011;14862;49.494;8.530;2023-01-08T13:15:19;4.55;;;2.33;;
27402;SDS011;14862;49.494;8.530;2023-01-08T13:17:46;1.92;;;1.73;;
27402;SDS011;14862;49.494;8.530;2023-01-08T13:20:13;4.88;;;2.42;;
27402;SDS011;14862;49.494;8.530;2023-01-08T13:22:43;3.05;;;2.03;;
27402;SDS011;14862;49.494;8.530;2023-01-08T13:27:43;4.10;;;1.90;;
27402;SDS011;14862;49.494;8.530;2023-01-08T13:32:53;4.03;;;2.22;;
27402;SDS011;14862;49.494;8.530;2023-01-08T13:35:19;4.00;;;2.30;;
27402;SDS011;14862;49.494;8.530;2023-01-08T13:37:47;4.28;;;2.35;;
27402;SDS011;14862;49.494;8.530;2023-01-08T13:43:00;2.83;;;2.13;;
27402;SDS011;14862;49.494;8.530;2023-01-08T13:45:25;2.90;;;1.63;;
27402;SDS011;14862;49.494;8.530;2023-01-08T13:47:53;3.70;;;1.83;;
27402;SDS011;14862;49.494;8.530;2023-01-08T13:50:20;2.47;;;1.83;;
27402;SDS011;14862;49.494;8.530;2023-01-08T13:52:46;2.17;;;1.98;;
27402;SDS011;14862;49.494;8.530;2023-01-08T13:55:16;2.72;;;1.98;;
27402;SDS011;14862;49.494;8.530;2023-01-08T13:57:48;2.05;;;1.80;;
27402;SDS011;14862;49.494;8.530;2023-01-08T14:00:18;4.63;;;2.20;;
27402;SDS011;14862;49.494;8.530;2023-01-08T14:02:45;1.98;;;1.77;;
27402;SDS011;14862;49.494;8.530;2023-01-08T14:05:18;2.90;;;1.77;;
27402;SDS011;14862;49.494;8.530;2023-01-08T14:07:44;3.97;;;1.95;;
27402;SDS011;14862;49.494;8.530;2023-01-08T14:10:13;1.65;;;1.55;;
27402;SDS011;14862;49.494;8.530;2023-01-08T14:12:39;3.30;;;2.15;;
27402;SDS011;14862;49.494;8.530;2023-01-08T14:15:06;4.63;;;1.92;;
27402;SDS011;14862;49.494;8.530;2023-01-08T14:17:33;4.47;;;2.30;;
27402;SDS011;14862;49.494;8.530;2023-01-08T14:19:59;3.20;;;1.80;;
27402;SDS011;14862;49.494;8.530;2023-01-08T14:22:26;1.98;;;1.60;;
27402;SDS011;14862;49.494;8.530;2023-01-08T14:24:53;1.90;;;1.60;;
27402;SDS011;14862;49.494;8.530;2023-01-08T14:27:20;2.60;;;2.10;;
27402;SDS011;14862;49.494;8.530;2023-01-08T14:29:46;2.03;;;1.60;;
27402;SDS011;14862;49.494;8.530;2023-01-08T14:32:15;2.28;;;1.92;;
27402;SDS011;14862;49.494;8.530;2023-01-08T14:34:41;3.72;;;2.50;;
27402;SDS011;14862;49.494;8.530;2023-01-08T14:37:10;3.25;;;2.00;;
27402;SDS011;14862;49.494;8.530;2023-01-08T14:39:36;3.67;;;2.20;;
27402;SDS011;14862;49.494;8.530;2023-01-08T14:42:05;3.15;;;1.70;;
27402;SDS011;14862;49.494;8.530;2023-01-08T14:44:56;2.83;;;1.88;;
27402;SDS011;14862;49.494;8.530;2023-01-08T14:47:22;2.38;;;1.90;;
27402;SDS011;14862;49.494;8.530;2023-01-08T14:49:51;2.50;;;1.90;;
27402;SDS011;14862;49.494;8.530;2023-01-08T14:52:17;2.35;;;1.80;;
27402;SDS011;14862;49.494;8.530;2023-01-08T14:54:44;1.50;;;1.40;;
27402;SDS011;14862;49.494;8.530;2023-01-08T14:57:11;2.60;;;1.60;;
27402;SDS011;14862;49.494;8.530;2023-01-08T14:59:36;1.73;;;1.27;;
27402;SDS011;14862;49.494;8.530;2023-01-08T15:02:02;2.60;;;1.33;;
27402;SDS011;14862;49.494;8.530;2023-01-08T15:04:28;1.30;;;1.20;;
27402;SDS011;14862;49.494;8.530;2023-01-08T15:07:06;2.22;;;1.35;;
27402;SDS011;14862;49.494;8.530;2023-01-08T15:09:32;1.92;;;1.13;;
27402;SDS011;14862;49.494;8.530;2023-01-08T15:11:59;1.27;;;1.17;;
27402;SDS011;14862;49.494;8.530;2023-01-08T15:14:26;1.80;;;1.40;;
27402;SDS011;14862;49.494;8.530;2023-01-08T15:16:55;2.25;;;1.25;;
27402;SDS011;14862;49.494;8.530;2023-01-08T15:19:22;2.10;;;1.63;;
27402;SDS011;14862;49.494;8.530;2023-01-08T15:21:49;2.20;;;1.67;;
27402;SDS011;14862;49.494;8.530;2023-01-08T15:24:20;2.03;;;1.80;;
27402;SDS011;14862;49.494;8.530;2023-01-08T15:26:46;2.58;;;1.90;;
27402;SDS011;14862;49.494;8.530;2023-01-08T15:29:16;2.17;;;2.00;;
27402;SDS011;14862;49.494;8.530;2023-01-08T15:34:07;1.50;;;1.40;;
27402;SDS011;14862;49.494;8.530;2023-01-08T15:36:32;2.63;;;2.10;;
27402;SDS011;14862;49.494;8.530;2023-01-08T15:38:58;2.03;;;1.83;;
27402;SDS011;14862;49.494;8.530;2023-01-08T15:41:23;1.92;;;1.73;;
27402;SDS011;14862;49.494;8.530;2023-01-08T15:44:20;3.47;;;1.70;;
27402;SDS011;14862;49.494;8.530;2023-01-08T15:46:46;2.88;;;2.05;;
27402;SDS011;14862;49.494;8.530;2023-01-08T15:49:11;2.70;;;1.77;;
27402;SDS011;14862;49.494;8.530;2023-01-08T15:51:38;1.85;;;1.70;;
27402;SDS011;14862;49.494;8.530;2023-01-08T15:54:05;3.35;;;1.95;;
27402;SDS011;14862;49.494;8.530;2023-01-08T15:56:30;2.58;;;1.90;;
27402;SDS011;14862;49.494;8.530;2023-01-08T15:58:56;2.88;;;2.25;;
27402;SDS011;14862;49.494;8.530;2023-01-08T16:01:21;4.57;;;1.95;;
27402;SDS011;14862;49.494;8.530;2023-01-08T16:03:47;2.15;;;1.80;;
27402;SDS011;14862;49.494;8.530;2023-01-08T16:06:12;2.10;;;1.80;;
27402;SDS011;14862;49.494;8.530;2023-01-08T16:08:37;2.70;;;1.60;;
27402;SDS011;14862;49.494;8.530;2023-01-08T16:11:02;4.57;;;1.90;;
27402;SDS011;14862;49.494;8.530;2023-01-08T16:13:27;3.35;;;1.85;;
27402;SDS011;14862;49.494;8.530;2023-01-08T16:15:53;3.63;;;1.80;;
27402;SDS011;14862;49.494;8.530;2023-01-08T16:18:19;2.38;;;1.92;;